Time,TemperatureF,DewpointF,PressureIn,WindDirection,WindDirectionDegrees,WindSpeedMPH,WindSpeedGustMPH,Humidity,HourlyPrecipIn,Conditions,Clouds,dailyrainin,SoftwareType,DateUTC
2013-08-10 00:11:00,73.0,72.0,30.03,NNW,329,0.0,0.0,97,0.00,,,0.01,,2013-08-10 05:11:00,
2013-08-10 00:22:00,73.0,72.0,30.03,NNW,329,0.0,0.0,97,0.00,,,0.01,,2013-08-10 05:22:00,
2013-08-10 00:32:00,73.0,72.0,30.03,NNW,329,0.0,0.0,97,0.00,,,0.00,,2013-08-10 05:32:00,
2013-08-10 00:43:00,73.0,72.0,30.03,NNW,329,0.0,0.0,97,0.00,,,0.00,,2013-08-10 05:43:00,
2013-08-10 00:52:00,73.0,72.0,30.03,NNW,329,0.0,0.0,97,0.00,,,0.00,,2013-08-10 05:52:00,
2013-08-10 01:02:00,73.0,72.0,30.03,NNW,329,0.0,0.0,97,0.00,,,0.00,,2013-08-10 06:02:00,
2013-08-10 01:11:00,73.0,72.0,30.02,NNW,329,0.0,0.0,97,0.00,,,0.00,,2013-08-10 06:11:00,
2013-08-10 01:32:00,72.0,71.0,30.02,NNW,329,0.0,0.0,97,0.00,,,0.00,,2013-08-10 06:32:00,
2013-08-10 01:44:00,72.0,71.0,30.02,NNW,329,0.0,0.0,97,0.00,,,0.00,,2013-08-10 06:44:00,
2013-08-10 02:02:00,72.0,71.0,30.01,NNW,329,0.0,0.0,97,0.00,,,0.00,,2013-08-10 07:02:00,
2013-08-10 02:13:00,72.0,71.0,30.01,NNW,329,0.0,0.0,97,0.00,,,0.00,,2013-08-10 07:13:00,
2013-08-10 02:22:00,72.0,71.0,30.01,NNW,329,0.0,0.0,98,0.00,,,0.00,,2013-08-10 07:22:00,
2013-08-10 02:33:00,72.0,71.0,30.01,NNW,329,0.0,0.0,98,0.00,,,0.00,,2013-08-10 07:33:00,
2013-08-10 02:43:00,72.0,71.0,30.01,NNW,329,0.0,0.0,98,0.00,,,0.00,,2013-08-10 07:43:00,
2013-08-10 02:52:00,72.0,71.0,30.01,NNW,329,0.0,0.0,98,0.00,,,0.00,,2013-08-10 07:52:00,
2013-08-10 03:01:00,72.0,71.0,30.01,NNW,329,0.0,0.0,98,0.00,,,0.00,,2013-08-10 08:01:00,
2013-08-10 03:12:00,72.0,71.0,30.01,NNW,329,0.0,0.0,98,0.00,,,0.00,,2013-08-10 08:12:00,
2013-08-10 03:22:00,72.0,71.0,30.01,NNW,329,0.0,0.0,98,0.00,,,0.00,,2013-08-10 08:22:00,
2013-08-10 03:32:00,72.0,71.0,30.01,NNW,329,0.0,0.0,98,0.00,,,0.00,,2013-08-10 08:32:00,
2013-08-10 03:43:00,72.0,71.0,30.01,NNW,328,0.0,0.0,98,0.00,,,0.00,,2013-08-10 08:43:00,
2013-08-10 03:53:00,72.0,71.0,30.01,NNW,328,0.0,0.0,98,0.00,,,0.00,,2013-08-10 08:53:00,
2013-08-10 04:02:00,72.0,71.0,30.01,NNW,329,0.0,0.0,98,0.00,,,0.00,,2013-08-10 09:02:00,
2013-08-10 04:12:00,72.0,71.0,30.01,NNW,329,0.0,0.0,98,0.00,,,0.00,,2013-08-10 09:12:00,
2013-08-10 04:22:00,72.0,71.0,30.01,NNW,329,0.0,0.0,98,0.00,,,0.00,,2013-08-10 09:22:00,
2013-08-10 04:32:00,72.0,71.0,30.02,NNW,329,0.0,0.0,98,0.00,,,0.00,,2013-08-10 09:32:00,
2013-08-10 04:43:00,72.0,71.0,30.02,NNW,329,0.0,0.0,98,0.00,,,0.00,,2013-08-10 09:43:00,
2013-08-10 05:02:00,72.0,71.0,30.01,NNW,329,0.0,0.0,98,0.00,,,0.00,,2013-08-10 10:02:00,
2013-08-10 05:11:00,71.0,70.0,30.02,NNW,328,0.0,0.0,98,0.00,,,0.00,,2013-08-10 10:11:00,
2013-08-10 05:22:00,71.0,70.0,30.02,NNW,328,0.0,0.0,98,0.00,,,0.00,,2013-08-10 10:22:00,
2013-08-10 05:33:00,71.0,70.0,30.02,NNW,329,0.0,0.0,98,0.00,,,0.00,,2013-08-10 10:33:00,
2013-08-10 05:44:00,71.0,70.0,30.02,NNW,329,0.0,0.0,98,0.00,,,0.00,,2013-08-10 10:44:00,
2013-08-10 05:52:00,71.0,70.0,30.02,NNW,329,0.0,0.0,98,0.00,,,0.00,,2013-08-10 10:52:00,
2013-08-10 06:02:00,71.0,70.0,30.03,NNW,329,0.0,0.0,98,0.00,,,0.00,,2013-08-10 11:02:00,
2013-08-10 06:11:00,71.0,70.0,30.03,NNW,329,0.0,0.0,98,0.00,,,0.00,,2013-08-10 11:11:00,
2013-08-10 06:33:00,71.0,70.0,30.04,NNW,329,0.0,0.0,98,0.00,,,0.00,,2013-08-10 11:33:00,
2013-08-10 06:43:00,71.0,70.0,30.03,NNW,329,0.0,0.0,98,0.00,,,0.00,,2013-08-10 11:43:00,
2013-08-10 07:01:00,71.0,70.0,30.04,NNW,329,0.0,0.0,98,0.00,,,0.00,,2013-08-10 12:01:00,
2013-08-10 07:11:00,72.0,71.0,30.04,NNW,336,0.0,0.0,98,0.00,,,0.00,,2013-08-10 12:11:00,
2013-08-10 07:32:00,74.0,73.0,30.04,ENE,75,0.0,0.0,98,0.00,,,0.00,,2013-08-10 12:32:00,
2013-08-10 07:42:00,75.0,74.0,30.04,East,82,0.0,0.0,97,0.00,,,0.00,,2013-08-10 12:42:00,
2013-08-10 07:52:00,75.0,74.0,30.04,East,82,0.0,0.0,97,0.00,,,0.00,,2013-08-10 12:52:00,
2013-08-10 08:01:00,77.0,75.0,30.05,East,81,0.0,0.0,95,0.00,,,0.00,,2013-08-10 13:01:00,
2013-08-10 08:22:00,77.0,75.0,30.05,East,82,0.0,2.0,93,0.00,,,0.00,,2013-08-10 13:22:00,
2013-08-10 08:32:00,79.0,76.0,30.05,East,80,0.0,2.0,90,0.00,,,0.00,,2013-08-10 13:32:00,
2013-08-10 08:43:00,80.0,76.0,30.06,East,100,0.0,3.0,89,0.00,,,0.00,,2013-08-10 13:43:00,
2013-08-10 08:52:00,80.0,76.0,30.06,East,100,0.0,3.0,89,0.00,,,0.00,,2013-08-10 13:52:00,
2013-08-10 09:02:00,81.0,77.0,30.06,ENE,75,0.0,2.0,87,0.00,,,0.00,,2013-08-10 14:02:00,
2013-08-10 09:12:00,82.0,78.0,30.06,ENE,63,0.0,1.0,87,0.00,,,0.00,,2013-08-10 14:12:00,
2013-08-10 09:33:00,83.0,78.0,30.06,ENE,77,0.0,4.0,84,0.00,,,0.00,,2013-08-10 14:33:00,
2013-08-10 09:53:00,84.0,78.0,30.06,ENE,68,0.0,3.0,83,0.00,,,0.00,,2013-08-10 14:53:00,
2013-08-10 10:02:00,84.0,78.0,30.06,ENE,68,0.0,3.0,83,0.00,,,0.00,,2013-08-10 15:02:00,
2013-08-10 10:12:00,84.0,78.0,30.06,ESE,114,0.0,3.0,82,0.00,,,0.00,,2013-08-10 15:12:00,
2013-08-10 10:34:00,84.0,78.0,30.07,ESE,113,0.0,3.0,82,0.00,,,0.00,,2013-08-10 15:34:00,
2013-08-10 10:43:00,84.0,78.0,30.07,ESE,104,0.0,5.0,81,0.00,,,0.00,,2013-08-10 15:43:00,
2013-08-10 10:52:00,85.0,77.0,30.07,NNE,32,0.0,5.0,78,0.00,,,0.00,,2013-08-10 15:52:00,
2013-08-10 11:01:00,85.0,77.0,30.07,NNE,32,0.0,5.0,78,0.00,,,0.00,,2013-08-10 16:01:00,
2013-08-10 11:12:00,85.0,78.0,30.08,ENE,75,0.0,2.0,81,0.00,,,0.00,,2013-08-10 16:12:00,
2013-08-10 11:22:00,85.0,78.0,30.08,NE,53,0.0,1.0,80,0.00,,,0.00,,2013-08-10 16:22:00,
2013-08-10 11:32:00,85.0,78.0,30.08,NE,53,0.0,1.0,80,0.00,,,0.00,,2013-08-10 16:32:00,
2013-08-10 11:43:00,86.0,78.0,30.07,ENE,68,1.0,3.0,78,0.00,,,0.00,,2013-08-10 16:43:00,
2013-08-10 11:53:00,87.0,78.0,30.07,ENE,68,2.0,4.0,74,0.00,,,0.00,,2013-08-10 16:53:00,
2013-08-10 12:02:00,87.0,78.0,30.07,ENE,68,2.0,4.0,74,0.00,,,0.00,,2013-08-10 17:02:00,
2013-08-10 12:12:00,88.0,77.0,30.07,ENE,68,0.0,3.0,69,0.00,,,0.00,,2013-08-10 17:12:00,
2013-08-10 12:22:00,89.0,78.0,30.07,ESE,115,2.0,6.0,70,0.00,,,0.00,,2013-08-10 17:22:00,
2013-08-10 12:33:00,89.0,78.0,30.07,ESE,115,2.0,6.0,70,0.00,,,0.00,,2013-08-10 17:33:00,
2013-08-10 12:43:00,87.0,77.0,30.06,East,82,2.0,4.0,72,0.00,,,0.00,,2013-08-10 17:43:00,
2013-08-10 12:52:00,89.0,78.0,30.06,ENE,62,1.0,4.0,70,0.00,,,0.00,,2013-08-10 17:52:00,
2013-08-10 13:01:00,89.0,78.0,30.06,ENE,62,1.0,4.0,70,0.00,,,0.00,,2013-08-10 18:01:00,
2013-08-10 13:11:00,88.0,77.0,30.05,ESE,106,0.0,4.0,70,0.00,,,0.00,,2013-08-10 18:11:00,
2013-08-10 13:23:00,87.0,78.0,30.04,East,101,0.0,3.0,74,0.00,,,0.00,,2013-08-10 18:23:00,
2013-08-10 13:32:00,87.0,78.0,30.04,East,101,0.0,3.0,74,0.00,,,0.00,,2013-08-10 18:32:00,
2013-08-10 13:44:00,86.0,76.0,30.04,ENE,58,1.0,4.0,72,0.00,,,0.00,,2013-08-10 18:44:00,
2013-08-10 13:52:00,86.0,76.0,30.03,SSE,162,0.0,2.0,73,0.00,,,0.00,,2013-08-10 18:52:00,
2013-08-10 14:02:00,86.0,76.0,30.03,SSE,162,0.0,2.0,73,0.00,,,0.00,,2013-08-10 19:02:00,
2013-08-10 14:11:00,89.0,77.0,30.03,ESE,115,0.0,3.0,67,0.00,,,0.00,,2013-08-10 19:11:00,
2013-08-10 14:22:00,89.0,76.0,30.02,SE,131,1.0,3.0,65,0.00,,,0.00,,2013-08-10 19:22:00,
2013-08-10 14:33:00,89.0,76.0,30.02,SE,131,1.0,3.0,65,0.00,,,0.00,,2013-08-10 19:33:00,
2013-08-10 14:44:00,89.0,78.0,30.02,NE,46,0.0,3.0,71,0.00,,,0.00,,2013-08-10 19:44:00,
2013-08-10 14:53:00,91.0,77.0,30.01,ESE,110,1.0,5.0,64,0.00,,,0.00,,2013-08-10 19:53:00,
2013-08-10 15:02:00,91.0,77.0,30.01,ESE,110,1.0,5.0,64,0.00,,,0.00,,2013-08-10 20:02:00,
2013-08-10 15:12:00,90.0,76.0,30.02,East,96,5.0,11.0,64,0.00,,,0.00,,2013-08-10 20:12:00,
2013-08-10 15:22:00,86.0,76.0,30.02,ESE,123,5.0,11.0,72,0.00,,,0.00,,2013-08-10 20:22:00,
2013-08-10 15:33:00,86.0,76.0,30.02,ESE,123,5.0,11.0,72,0.00,,,0.00,,2013-08-10 20:33:00,
2013-08-10 15:43:00,84.0,74.0,30.02,SW,236,4.0,11.0,72,0.00,,,0.00,,2013-08-10 20:43:00,
2013-08-10 15:53:00,84.0,76.0,30.02,South,179,3.0,10.0,76,0.00,,,0.00,,2013-08-10 20:53:00,
2013-08-10 16:02:00,84.0,76.0,30.02,South,179,3.0,10.0,76,0.00,,,0.00,,2013-08-10 21:02:00,
2013-08-10 16:12:00,85.0,75.0,30.02,SSW,197,5.0,12.0,71,0.00,,,0.00,,2013-08-10 21:12:00,
2013-08-10 16:22:00,85.0,75.0,30.01,SSE,152,3.0,11.0,71,0.00,,,0.00,,2013-08-10 21:22:00,
2013-08-10 16:32:00,85.0,75.0,30.01,SSE,152,3.0,11.0,71,0.00,,,0.00,,2013-08-10 21:32:00,
2013-08-10 16:42:00,84.0,74.0,30.02,WSW,245,3.0,9.0,73,0.00,,,0.00,,2013-08-10 21:42:00,
2013-08-10 16:52:00,84.0,75.0,30.02,SSW,208,3.0,8.0,74,0.00,,,0.00,,2013-08-10 21:52:00,
2013-08-10 17:01:00,84.0,75.0,30.02,SSW,208,3.0,8.0,74,0.00,,,0.00,,2013-08-10 22:01:00,
2013-08-10 17:11:00,83.0,75.0,30.03,SSW,207,2.0,7.0,77,0.00,,,0.00,,2013-08-10 22:11:00,
2013-08-10 17:21:00,83.0,74.0,30.02,SW,218,2.0,5.0,75,0.00,,,0.00,,2013-08-10 22:21:00,
2013-08-10 17:32:00,83.0,74.0,30.02,SW,218,2.0,5.0,75,0.00,,,0.00,,2013-08-10 22:32:00,
2013-08-10 17:43:00,83.0,74.0,30.02,SE,135,0.0,4.0,75,0.00,,,0.00,,2013-08-10 22:43:00,
2013-08-10 17:52:00,81.0,73.0,30.02,SSW,212,1.0,3.0,77,0.00,,,0.00,,2013-08-10 22:52:00,
2013-08-10 18:02:00,81.0,73.0,30.02,SSW,212,1.0,3.0,77,0.00,,,0.00,,2013-08-10 23:02:00,
2013-08-10 18:12:00,82.0,74.0,30.02,SSE,153,0.0,3.0,77,0.00,,,0.00,,2013-08-10 23:12:00,
2013-08-10 18:22:00,82.0,74.0,30.03,WSW,242,2.0,4.0,76,0.00,,,0.00,,2013-08-10 23:22:00,
2013-08-10 18:32:00,82.0,74.0,30.03,WSW,242,2.0,4.0,76,0.00,,,0.00,,2013-08-10 23:32:00,
2013-08-10 18:43:00,81.0,73.0,30.03,West,277,2.0,4.0,77,0.00,,,0.00,,2013-08-10 23:43:00,
2013-08-10 18:53:00,80.0,74.0,30.04,West,269,0.0,1.0,83,0.00,,,0.00,,2013-08-10 23:53:00,
2013-08-10 19:02:00,80.0,74.0,30.04,West,269,0.0,1.0,83,0.00,,,0.00,,2013-08-11 00:02:00,
2013-08-10 19:11:00,80.0,74.0,30.04,West,269,0.0,1.0,83,0.00,,,0.00,,2013-08-11 00:11:00,
2013-08-10 19:22:00,77.0,74.0,30.04,SW,224,0.0,0.0,89,0.00,,,0.00,,2013-08-11 00:22:00,
2013-08-10 19:32:00,77.0,74.0,30.04,SW,224,0.0,0.0,89,0.00,,,0.00,,2013-08-11 00:32:00,
2013-08-10 19:42:00,76.0,73.0,30.05,SW,224,0.0,0.0,91,0.00,,,0.00,,2013-08-11 00:42:00,
2013-08-10 19:52:00,76.0,74.0,30.06,SW,224,0.0,0.0,93,0.00,,,0.00,,2013-08-11 00:52:00,
2013-08-10 20:02:00,76.0,74.0,30.06,SW,224,0.0,0.0,93,0.00,,,0.00,,2013-08-11 01:02:00,
2013-08-10 20:11:00,75.0,73.0,30.06,SW,224,0.0,0.0,93,0.00,,,0.00,,2013-08-11 01:11:00,
2013-08-10 20:22:00,75.0,73.0,30.06,SW,224,0.0,0.0,94,0.00,,,0.00,,2013-08-11 01:22:00,
2013-08-10 20:32:00,75.0,73.0,30.06,SW,224,0.0,0.0,94,0.00,,,0.00,,2013-08-11 01:32:00,
2013-08-10 20:43:00,75.0,73.0,30.06,SW,224,0.0,0.0,95,0.00,,,0.00,,2013-08-11 01:43:00,
2013-08-10 20:53:00,74.0,72.0,30.07,SW,224,0.0,0.0,95,0.00,,,0.00,,2013-08-11 01:53:00,
2013-08-10 21:02:00,74.0,72.0,30.07,SW,224,0.0,0.0,95,0.00,,,0.00,,2013-08-11 02:02:00,
2013-08-10 21:11:00,74.0,73.0,30.07,SW,224,0.0,0.0,96,0.00,,,0.00,,2013-08-11 02:11:00,
2013-08-10 21:22:00,74.0,73.0,30.07,NNE,32,0.0,1.0,96,0.00,,,0.00,,2013-08-11 02:22:00,
2013-08-10 21:32:00,74.0,73.0,30.07,NNE,32,0.0,1.0,96,0.00,,,0.00,,2013-08-11 02:32:00,
2013-08-10 21:43:00,74.0,73.0,30.06,NE,39,0.0,0.0,96,0.00,,,0.00,,2013-08-11 02:43:00,
2013-08-10 21:56:00,74.0,73.0,30.07,NE,39,0.0,0.0,96,0.00,,,0.00,,2013-08-11 02:56:00,
2013-08-10 22:06:00,74.0,73.0,30.07,NE,39,0.0,0.0,96,0.00,,,0.00,,2013-08-11 03:06:00,
2013-08-10 22:18:00,74.0,73.0,30.07,NE,39,0.0,0.0,96,0.00,,,0.00,,2013-08-11 03:18:00,
2013-08-10 22:27:00,73.0,72.0,30.06,NE,39,0.0,0.0,96,0.00,,,0.00,,2013-08-11 03:27:00,
2013-08-10 22:35:00,73.0,72.0,30.06,NE,39,0.0,0.0,96,0.00,,,0.00,,2013-08-11 03:35:00,
2013-08-10 22:44:00,73.0,72.0,30.07,NE,39,0.0,0.0,97,0.00,,,0.00,,2013-08-11 03:44:00,
2013-08-10 22:54:00,73.0,72.0,30.06,NE,38,0.0,0.0,97,0.00,,,0.00,,2013-08-11 03:54:00,
2013-08-10 23:01:00,73.0,72.0,30.06,NE,38,0.0,0.0,97,0.00,,,0.00,,2013-08-11 04:01:00,
2013-08-10 23:12:00,73.0,72.0,30.06,NE,38,0.0,1.0,97,0.00,,,0.00,,2013-08-11 04:12:00,
2013-08-10 23:22:00,73.0,72.0,30.06,NE,38,0.0,0.0,97,0.00,,,0.00,,2013-08-11 04:22:00,
2013-08-10 23:32:00,73.0,72.0,30.06,NE,38,0.0,0.0,97,0.00,,,0.00,,2013-08-11 04:32:00,
2013-08-10 23:43:00,73.0,72.0,30.06,NE,38,0.0,0.0,97,0.00,,,0.00,,2013-08-11 04:43:00,
2013-08-10 23:53:00,73.0,72.0,30.06,NE,39,0.0,0.0,97,0.00,,,0.00,,2013-08-11 04:53:00,